sensor_id;sensor_type;location;lat;lon;timestamp;P1;durP1;ratioP1;P2;durP2;ratioP2
57023;SDS011;42916;54.346;18.562;2024-01-25T00:01:51;4.20;;;1.10;;
57023;SDS011;42916;54.346;18.562;2024-01-25T00:04:18;3.70;;;1.00;;
57023;SDS011;42916;54.346;18.562;2024-01-25T00:06:45;2.90;;;1.00;;
57023;SDS011;42916;54.346;18.562;2024-01-25T00:09:13;4.10;;;0.90;;
57023;SDS011;42916;54.346;18.562;2024-01-25T00:11:40;3.50;;;0.90;;
57023;SDS011;42916;54.346;18.562;2024-01-25T00:14:07;4.00;;;0.60;;
57023;SDS011;42916;54.346;18.562;2024-01-25T00:16:34;2.60;;;0.80;;
57023;SDS011;42916;54.346;18.562;2024-01-25T00:19:01;4.40;;;0.90;;
57023;SDS011;42916;54.346;18.562;2024-01-25T00:21:28;2.70;;;0.60;;
57023;SDS011;42916;54.346;18.562;2024-01-25T00:23:55;4.40;;;0.90;;
57023;SDS011;42916;54.346;18.562;2024-01-25T00:26:23;4.30;;;1.00;;
57023;SDS011;42916;54.346;18.562;2024-01-25T00:28:50;1.30;;;0.60;;
57023;SDS011;42916;54.346;18.562;2024-01-25T00:31:18;2.50;;;0.90;;
57023;SDS011;42916;54.346;18.562;2024-01-25T00:33:46;3.90;;;0.60;;
57023;SDS011;42916;54.346;18.562;2024-01-25T00:36:14;3.20;;;0.80;;
57023;SDS011;42916;54.346;18.562;2024-01-25T00:38:41;2.50;;;0.70;;
57023;SDS011;42916;54.346;18.562;2024-01-25T00:41:09;1.40;;;0.50;;
57023;SDS011;42916;54.346;18.562;2024-01-25T00:43:37;6.50;;;1.40;;
57023;SDS011;42916;54.346;18.562;2024-01-25T00:46:04;4.30;;;0.90;;
57023;SDS011;42916;54.346;18.562;2024-01-25T00:48:32;2.40;;;0.70;;
57023;SDS011;42916;54.346;18.562;2024-01-25T00:50:59;4.30;;;0.80;;
57023;SDS011;42916;54.346;18.562;2024-01-25T00:53:26;2.60;;;0.80;;
57023;SDS011;42916;54.346;18.562;2024-01-25T00:55:53;2.70;;;0.80;;
57023;SDS011;42916;54.346;18.562;2024-01-25T00:58:20;5.30;;;0.90;;
57023;SDS011;42916;54.346;18.562;2024-01-25T01:00:48;2.20;;;0.70;;
57023;SDS011;42916;54.346;18.562;2024-01-25T01:03:18;4.30;;;1.10;;
57023;SDS011;42916;54.346;18.562;2024-01-25T01:05:46;5.40;;;0.80;;
57023;SDS011;42916;54.346;18.562;2024-01-25T01:08:13;5.20;;;1.00;;
57023;SDS011;42916;54.346;18.562;2024-01-25T01:10:40;6.10;;;1.70;;
57023;SDS011;42916;54.346;18.562;2024-01-25T01:13:07;5.60;;;1.40;;
57023;SDS011;42916;54.346;18.562;2024-01-25T01:15:34;6.50;;;1.30;;
57023;SDS011;42916;54.346;18.562;2024-01-25T01:18:00;6.50;;;1.40;;
57023;SDS011;42916;54.346;18.562;2024-01-25T01:20:27;6.00;;;1.20;;
57023;SDS011;42916;54.346;18.562;2024-01-25T01:22:54;4.20;;;1.30;;
57023;SDS011;42916;54.346;18.562;2024-01-25T01:25:21;7.90;;;1.70;;
57023;SDS011;42916;54.346;18.562;2024-01-25T01:27:48;4.90;;;1.80;;
57023;SDS011;42916;54.346;18.562;2024-01-25T01:30:17;11.70;;;1.90;;
57023;SDS011;42916;54.346;18.562;2024-01-25T01:32:45;9.60;;;1.60;;
57023;SDS011;42916;54.346;18.562;2024-01-25T01:35:12;10.50;;;2.20;;
57023;SDS011;42916;54.346;18.562;2024-01-25T01:37:39;9.70;;;2.00;;
57023;SDS011;42916;54.346;18.562;2024-01-25T01:40:07;11.50;;;3.40;;
57023;SDS011;42916;54.346;18.562;2024-01-25T01:42:34;13.80;;;2.70;;
57023;SDS011;42916;54.346;18.562;2024-01-25T01:45:02;14.50;;;2.70;;
57023;SDS011;42916;54.346;18.562;2024-01-25T01:47:29;16.00;;;2.20;;
57023;SDS011;42916;54.346;18.562;2024-01-25T01:49:56;10.00;;;2.50;;
57023;SDS011;42916;54.346;18.562;2024-01-25T01:52:24;14.80;;;2.70;;
57023;SDS011;42916;54.346;18.562;2024-01-25T01:54:51;14.10;;;2.50;;
57023;SDS011;42916;54.346;18.562;2024-01-25T01:57:18;9.30;;;2.10;;
57023;SDS011;42916;54.346;18.562;2024-01-25T01:59:47;14.10;;;2.90;;
57023;SDS011;42916;54.346;18.562;2024-01-25T02:02:17;10.80;;;2.40;;
57023;SDS011;42916;54.346;18.562;2024-01-25T02:04:43;15.20;;;3.00;;
57023;SDS011;42916;54.346;18.562;2024-01-25T02:07:11;8.20;;;2.00;;
57023;SDS011;42916;54.346;18.562;2024-01-25T02:09:38;15.20;;;2.20;;
57023;SDS011;42916;54.346;18.562;2024-01-25T02:12:05;12.40;;;2.70;;
57023;SDS011;42916;54.346;18.562;2024-01-25T02:14:33;10.40;;;2.00;;
57023;SDS011;42916;54.346;18.562;2024-01-25T02:17:00;16.70;;;2.70;;
57023;SDS011;42916;54.346;18.562;2024-01-25T02:19:27;11.60;;;3.50;;
57023;SDS011;42916;54.346;18.562;2024-01-25T02:21:54;9.30;;;2.00;;
57023;SDS011;42916;54.346;18.562;2024-01-25T02:24:25;10.40;;;2.10;;
57023;SDS011;42916;54.346;18.562;2024-01-25T02:26:52;9.10;;;1.80;;
57023;SDS011;42916;54.346;18.562;2024-01-25T02:29:19;8.80;;;1.80;;
57023;SDS011;42916;54.346;18.562;2024-01-25T02:31:46;7.60;;;1.60;;
57023;SDS011;42916;54.346;18.562;2024-01-25T02:34:14;15.60;;;2.10;;
57023;SDS011;42916;54.346;18.562;2024-01-25T02:36:41;8.50;;;1.60;;
57023;SDS011;42916;54.346;18.562;2024-01-25T02:39:08;9.10;;;1.80;;
57023;SDS011;42916;54.346;18.562;2024-01-25T02:41:35;9.60;;;1.80;;
57023;SDS011;42916;54.346;18.562;2024-01-25T02:44:02;10.70;;;2.50;;
57023;SDS011;42916;54.346;18.562;2024-01-25T02:46:29;9.20;;;1.70;;
57023;SDS011;42916;54.346;18.562;2024-01-25T02:48:56;12.60;;;2.00;;
57023;SDS011;42916;54.346;18.562;2024-01-25T02:51:23;11.80;;;2.30;;
57023;SDS011;42916;54.346;18.562;2024-01-25T02:53:52;6.60;;;1.90;;
57023;SDS011;42916;54.346;18.562;2024-01-25T02:56:19;6.90;;;1.90;;
57023;SDS011;42916;54.346;18.562;2024-01-25T02:58:46;5.50;;;1.90;;
57023;SDS011;42916;54.346;18.562;2024-01-25T03:01:13;11.60;;;2.00;;
57023;SDS011;42916;54.346;18.562;2024-01-25T03:03:40;7.90;;;2.00;;
57023;SDS011;42916;54.346;18.562;2024-01-25T03:06:06;9.50;;;1.80;;
57023;SDS011;42916;54.346;18.562;2024-01-25T03:08:33;7.90;;;1.40;;
57023;SDS011;42916;54.346;18.562;2024-01-25T03:11:00;6.30;;;1.40;;
57023;SDS011;42916;54.346;18.562;2024-01-25T03:13:30;6.90;;;1.60;;
57023;SDS011;42916;54.346;18.562;2024-01-25T03:15:57;7.80;;;1.80;;
57023;SDS011;42916;54.346;18.562;2024-01-25T03:18:24;7.40;;;1.50;;
57023;SDS011;42916;54.346;18.562;2024-01-25T03:20:51;10.90;;;1.70;;
57023;SDS011;42916;54.346;18.562;2024-01-25T03:23:18;7.80;;;1.50;;
57023;SDS011;42916;54.346;18.562;2024-01-25T03:25:45;4.90;;;1.70;;
57023;SDS011;42916;54.346;18.562;2024-01-25T03:28:12;7.10;;;1.50;;
57023;SDS011;42916;54.346;18.562;2024-01-25T03:30:41;8.20;;;1.80;;
57023;SDS011;42916;54.346;18.562;2024-01-25T03:33:08;6.70;;;1.40;;
57023;SDS011;42916;54.346;18.562;2024-01-25T03:35:35;10.20;;;2.10;;
57023;SDS011;42916;54.346;18.562;2024-01-25T03:38:02;8.10;;;1.70;;
57023;SDS011;42916;54.346;18.562;2024-01-25T03:40:29;8.10;;;1.50;;
57023;SDS011;42916;54.346;18.562;2024-01-25T03:42:56;5.90;;;1.20;;
57023;SDS011;42916;54.346;18.562;2024-01-25T03:45:22;9.50;;;1.20;;
57023;SDS011;42916;54.346;18.562;2024-01-25T03:47:50;6.30;;;1.60;;
57023;SDS011;42916;54.346;18.562;2024-01-25T03:50:18;6.00;;;1.20;;
57023;SDS011;42916;54.346;18.562;2024-01-25T03:52:46;5.50;;;1.50;;
57023;SDS011;42916;54.346;18.562;2024-01-25T03:55:13;6.60;;;1.10;;
57023;SDS011;42916;54.346;18.562;2024-01-25T03:57:40;6.00;;;1.40;;
57023;SDS011;42916;54.346;18.562;2024-01-25T04:00:08;6.50;;;1.30;;
57023;SDS011;42916;54.346;18.562;2024-01-25T04:02:35;9.90;;;1.30;;
57023;SDS011;42916;54.346;18.562;2024-01-25T04:05:03;6.60;;;1.20;;
57023;SDS011;42916;54.346;18.562;2024-01-25T04:07:30;5.10;;;1.10;;
57023;SDS011;42916;54.346;18.562;2024-01-25T04:09:58;6.80;;;1.30;;
57023;SDS011;42916;54.346;18.562;2024-01-25T04:12:25;8.00;;;1.50;;
57023;SDS011;42916;54.346;18.562;2024-01-25T04:14:52;4.40;;;1.00;;
57023;SDS011;42916;54.346;18.562;2024-01-25T04:17:19;6.30;;;1.80;;
57023;SDS011;42916;54.346;18.562;2024-01-25T04:19:45;5.40;;;1.40;;
57023;SDS011;42916;54.346;18.562;2024-01-25T04:22:13;6.60;;;1.60;;
57023;SDS011;42916;54.346;18.562;2024-01-25T04:24:40;5.40;;;1.50;;
57023;SDS011;42916;54.346;18.562;2024-01-25T04:27:07;4.20;;;1.60;;
57023;SDS011;42916;54.346;18.562;2024-01-25T04:29:34;5.50;;;1.10;;
57023;SDS011;42916;54.346;18.562;2024-01-25T04:32:04;7.50;;;1.50;;
57023;SDS011;42916;54.346;18.562;2024-01-25T04:34:32;11.30;;;1.60;;
57023;SDS011;42916;54.346;18.562;2024-01-25T04:36:59;9.50;;;1.70;;
57023;SDS011;42916;54.346;18.562;2024-01-25T04:39:25;8.30;;;2.00;;
57023;SDS011;42916;54.346;18.562;2024-01-25T04:41:53;12.20;;;1.80;;
57023;SDS011;42916;54.346;18.562;2024-01-25T04:44:20;7.10;;;1.70;;
57023;SDS011;42916;54.346;18.562;2024-01-25T04:46:46;9.70;;;1.80;;
57023;SDS011;42916;54.346;18.562;2024-01-25T04:49:13;5.20;;;1.60;;
57023;SDS011;42916;54.346;18.562;2024-01-25T04:51:40;8.50;;;3.10;;
57023;SDS011;42916;54.346;18.562;2024-01-25T04:54:07;5.40;;;1.60;;
57023;SDS011;42916;54.346;18.562;2024-01-25T04:56:38;7.10;;;1.60;;
57023;SDS011;42916;54.346;18.562;2024-01-25T04:59:05;4.20;;;1.30;;
57023;SDS011;42916;54.346;18.562;2024-01-25T05:01:32;5.30;;;1.30;;
57023;SDS011;42916;54.346;18.562;2024-01-25T05:03:58;7.80;;;1.60;;
57023;SDS011;42916;54.346;18.562;2024-01-25T05:06:26;4.50;;;1.30;;
57023;SDS011;42916;54.346;18.562;2024-01-25T05:08:53;6.80;;;1.20;;
57023;SDS011;42916;54.346;18.562;2024-01-25T05:11:22;5.90;;;1.60;;
57023;SDS011;42916;54.346;18.562;2024-01-25T05:13:49;9.20;;;2.00;;
57023;SDS011;42916;54.346;18.562;2024-01-25T05:16:16;4.60;;;1.80;;
57023;SDS011;42916;54.346;18.562;2024-01-25T05:18:43;7.20;;;1.70;;
57023;SDS011;42916;54.346;18.562;2024-01-25T05:21:10;5.90;;;1.30;;
57023;SDS011;42916;54.346;18.562;2024-01-25T05:23:37;5.70;;;1.70;;
57023;SDS011;42916;54.346;18.562;2024-01-25T05:26:05;8.20;;;1.50;;
57023;SDS011;42916;54.346;18.562;2024-01-25T05:28:32;4.00;;;1.00;;
57023;SDS011;42916;54.346;18.562;2024-01-25T05:30:59;8.60;;;1.70;;
57023;SDS011;42916;54.346;18.562;2024-01-25T05:33:26;7.10;;;1.40;;
57023;SDS011;42916;54.346;18.562;2024-01-25T05:35:53;6.60;;;1.40;;
57023;SDS011;42916;54.346;18.562;2024-01-25T05:38:20;6.60;;;1.90;;
57023;SDS011;42916;54.346;18.562;2024-01-25T05:40:47;5.50;;;1.10;;
57023;SDS011;42916;54.346;18.562;2024-01-25T05:43:13;6.30;;;1.10;;
57023;SDS011;42916;54.346;18.562;2024-01-25T05:45:40;4.60;;;1.10;;
57023;SDS011;42916;54.346;18.562;2024-01-25T05:48:07;5.30;;;1.10;;
57023;SDS011;42916;54.346;18.562;2024-01-25T05:50:34;3.50;;;1.10;;
57023;SDS011;42916;54.346;18.562;2024-01-25T05:53:01;4.40;;;0.90;;
57023;SDS011;42916;54.346;18.562;2024-01-25T05:55:28;3.70;;;1.30;;
57023;SDS011;42916;54.346;18.562;2024-01-25T05:57:55;4.50;;;1.00;;
57023;SDS011;42916;54.346;18.562;2024-01-25T06:00:22;5.10;;;1.40;;
57023;SDS011;42916;54.346;18.562;2024-01-25T06:02:49;5.60;;;1.00;;
57023;SDS011;42916;54.346;18.562;2024-01-25T06:05:17;4.30;;;1.00;;
57023;SDS011;42916;54.346;18.562;2024-01-25T06:07:44;7.80;;;1.50;;
57023;SDS011;42916;54.346;18.562;2024-01-25T06:10:12;3.70;;;0.90;;
57023;SDS011;42916;54.346;18.562;2024-01-25T06:12:39;6.40;;;1.60;;
57023;SDS011;42916;54.346;18.562;2024-01-25T06:15:06;5.00;;;1.20;;
57023;SDS011;42916;54.346;18.562;2024-01-25T06:17:33;5.10;;;0.80;;
57023;SDS011;42916;54.346;18.562;2024-01-25T06:20:00;5.70;;;1.20;;
57023;SDS011;42916;54.346;18.562;2024-01-25T06:22:27;8.50;;;1.40;;
57023;SDS011;42916;54.346;18.562;2024-01-25T06:24:54;5.50;;;1.10;;
57023;SDS011;42916;54.346;18.562;2024-01-25T06:27:24;4.80;;;1.10;;
57023;SDS011;42916;54.346;18.562;2024-01-25T06:29:51;7.10;;;1.40;;
57023;SDS011;42916;54.346;18.562;2024-01-25T06:32:30;3.80;;;1.00;;
57023;SDS011;42916;54.346;18.562;2024-01-25T06:35:04;6.70;;;1.30;;
57023;SDS011;42916;54.346;18.562;2024-01-25T06:37:45;4.90;;;1.00;;
57023;SDS011;42916;54.346;18.562;2024-01-25T06:40:12;2.90;;;1.20;;
57023;SDS011;42916;54.346;18.562;2024-01-25T06:42:40;4.80;;;1.10;;
57023;SDS011;42916;54.346;18.562;2024-01-25T06:45:09;4.20;;;0.80;;
57023;SDS011;42916;54.346;18.562;2024-01-25T06:47:36;2.90;;;1.50;;
57023;SDS011;42916;54.346;18.562;2024-01-25T06:50:09;5.30;;;1.10;;
57023;SDS011;42916;54.346;18.562;2024-01-25T06:52:42;3.80;;;0.90;;
57023;SDS011;42916;54.346;18.562;2024-01-25T06:55:14;6.20;;;1.30;;
57023;SDS011;42916;54.346;18.562;2024-01-25T06:57:41;4.30;;;1.20;;
57023;SDS011;42916;54.346;18.562;2024-01-25T07:00:07;3.80;;;1.20;;
57023;SDS011;42916;54.346;18.562;2024-01-25T07:02:36;3.20;;;1.10;;
57023;SDS011;42916;54.346;18.562;2024-01-25T07:05:04;3.20;;;0.80;;
57023;SDS011;42916;54.346;18.562;2024-01-25T07:07:31;3.10;;;1.10;;
57023;SDS011;42916;54.346;18.562;2024-01-25T07:09:59;4.30;;;1.00;;
57023;SDS011;42916;54.346;18.562;2024-01-25T07:12:26;3.00;;;0.90;;
57023;SDS011;42916;54.346;18.562;2024-01-25T07:14:53;2.30;;;0.80;;
57023;SDS011;42916;54.346;18.562;2024-01-25T07:17:20;1.80;;;0.80;;
57023;SDS011;42916;54.346;18.562;2024-01-25T07:19:48;2.80;;;0.80;;
57023;SDS011;42916;54.346;18.562;2024-01-25T07:22:15;2.10;;;0.50;;
57023;SDS011;42916;54.346;18.562;2024-01-25T07:27:12;0.90;;;0.70;;
57023;SDS011;42916;54.346;18.562;2024-01-25T07:29:39;1.60;;;0.50;;
57023;SDS011;42916;54.346;18.562;2024-01-25T07:32:06;1.00;;;0.60;;
57023;SDS011;42916;54.346;18.562;2024-01-25T07:34:34;2.40;;;1.00;;
57023;SDS011;42916;54.346;18.562;2024-01-25T07:37:00;1.10;;;0.50;;
57023;SDS011;42916;54.346;18.562;2024-01-25T07:39:27;0.60;;;0.60;;
57023;SDS011;42916;54.346;18.562;2024-01-25T07:41:54;0.90;;;0.50;;
57023;SDS011;42916;54.346;18.562;2024-01-25T07:44:21;1.00;;;0.50;;
57023;SDS011;42916;54.346;18.562;2024-01-25T07:46:48;0.90;;;0.40;;
57023;SDS011;42916;54.346;18.562;2024-01-25T07:49:16;2.40;;;0.40;;
57023;SDS011;42916;54.346;18.562;2024-01-25T07:51:43;0.40;;;0.40;;
57023;SDS011;42916;54.346;18.562;2024-01-25T07:54:10;0.60;;;0.40;;
57023;SDS011;42916;54.346;18.562;2024-01-25T07:56:37;0.30;;;0.30;;
57023;SDS011;42916;54.346;18.562;2024-01-25T07:59:04;0.40;;;0.40;;
57023;SDS011;42916;54.346;18.562;2024-01-25T08:01:30;1.10;;;0.30;;
57023;SDS011;42916;54.346;18.562;2024-01-25T08:03:57;0.40;;;0.40;;
57023;SDS011;42916;54.346;18.562;2024-01-25T08:06:26;1.30;;;0.50;;
57023;SDS011;42916;54.346;18.562;2024-01-25T08:08:54;0.50;;;0.50;;
57023;SDS011;42916;54.346;18.562;2024-01-25T08:11:21;0.50;;;0.40;;
57023;SDS011;42916;54.346;18.562;2024-01-25T08:13:50;0.40;;;0.40;;
57023;SDS011;42916;54.346;18.562;2024-01-25T08:16:18;1.00;;;0.70;;
57023;SDS011;42916;54.346;18.562;2024-01-25T08:18:55;0.40;;;0.30;;
57023;SDS011;42916;54.346;18.562;2024-01-25T08:21:22;0.90;;;0.40;;
57023;SDS011;42916;54.346;18.562;2024-01-25T08:23:49;0.70;;;0.50;;
57023;SDS011;42916;54.346;18.562;2024-01-25T08:26:18;0.70;;;0.60;;
57023;SDS011;42916;54.346;18.562;2024-01-25T08:28:46;0.40;;;0.40;;
57023;SDS011;42916;54.346;18.562;2024-01-25T08:31:13;0.90;;;0.70;;
57023;SDS011;42916;54.346;18.562;2024-01-25T08:33:41;0.90;;;0.50;;
57023;SDS011;42916;54.346;18.562;2024-01-25T08:36:10;2.00;;;1.20;;
57023;SDS011;42916;54.346;18.562;2024-01-25T08:38:37;1.50;;;0.70;;
57023;SDS011;42916;54.346;18.562;2024-01-25T08:41:04;0.80;;;0.60;;
57023;SDS011;42916;54.346;18.562;2024-01-25T08:43:31;1.80;;;0.80;;
57023;SDS011;42916;54.346;18.562;2024-01-25T08:45:58;0.80;;;0.50;;
57023;SDS011;42916;54.346;18.562;2024-01-25T08:48:25;7.70;;;3.80;;
57023;SDS011;42916;54.346;18.562;2024-01-25T08:50:52;2.50;;;1.30;;
57023;SDS011;42916;54.346;18.562;2024-01-25T08:53:21;8.20;;;4.50;;
57023;SDS011;42916;54.346;18.562;2024-01-25T08:55:51;2.00;;;1.10;;
57023;SDS011;42916;54.346;18.562;2024-01-25T08:58:18;1.40;;;1.10;;
57023;SDS011;42916;54.346;18.562;2024-01-25T09:00:45;2.20;;;0.70;;
57023;SDS011;42916;54.346;18.562;2024-01-25T09:03:12;1.10;;;0.80;;
57023;SDS011;42916;54.346;18.562;2024-01-25T09:05:39;0.80;;;0.70;;
57023;SDS011;42916;54.346;18.562;2024-01-25T09:08:11;2.10;;;0.90;;
57023;SDS011;42916;54.346;18.562;2024-01-25T09:10:40;2.30;;;0.80;;
57023;SDS011;42916;54.346;18.562;2024-01-25T09:13:08;1.60;;;1.30;;
57023;SDS011;42916;54.346;18.562;2024-01-25T09:15:36;1.90;;;0.70;;
57023;SDS011;42916;54.346;18.562;2024-01-25T09:18:03;1.30;;;0.90;;
57023;SDS011;42916;54.346;18.562;2024-01-25T09:20:32;1.10;;;1.00;;
57023;SDS011;42916;54.346;18.562;2024-01-25T09:22:59;1.10;;;0.70;;
57023;SDS011;42916;54.346;18.562;2024-01-25T09:25:26;0.70;;;0.50;;
57023;SDS011;42916;54.346;18.562;2024-01-25T09:27:53;0.90;;;0.60;;
57023;SDS011;42916;54.346;18.562;2024-01-25T09:30:20;1.00;;;0.80;;
57023;SDS011;42916;54.346;18.562;2024-01-25T09:32:47;1.10;;;0.80;;
57023;SDS011;42916;54.346;18.562;2024-01-25T09:35:16;3.80;;;1.00;;
57023;SDS011;42916;54.346;18.562;2024-01-25T09:37:43;4.00;;;1.10;;
57023;SDS011;42916;54.346;18.562;2024-01-25T09:40:10;3.20;;;1.20;;
57023;SDS011;42916;54.346;18.562;2024-01-25T09:42:37;3.40;;;1.40;;
57023;SDS011;42916;54.346;18.562;2024-01-25T09:45:06;2.10;;;1.00;;
57023;SDS011;42916;54.346;18.562;2024-01-25T09:47:33;1.20;;;1.10;;
57023;SDS011;42916;54.346;18.562;2024-01-25T09:50:01;1.50;;;0.80;;
57023;SDS011;42916;54.346;18.562;2024-01-25T09:52:30;2.50;;;1.10;;
57023;SDS011;42916;54.346;18.562;2024-01-25T09:54:58;2.20;;;1.20;;
57023;SDS011;42916;54.346;18.562;2024-01-25T09:57:27;2.30;;;1.10;;
57023;SDS011;42916;54.346;18.562;2024-01-25T09:59:55;2.70;;;1.10;;
57023;SDS011;42916;54.346;18.562;2024-01-25T10:02:22;6.60;;;1.60;;
57023;SDS011;42916;54.346;18.562;2024-01-25T10:04:50;6.80;;;1.40;;
57023;SDS011;42916;54.346;18.562;2024-01-25T10:07:38;1.90;;;1.20;;
57023;SDS011;42916;54.346;18.562;2024-01-25T10:10:06;3.30;;;1.30;;
57023;SDS011;42916;54.346;18.562;2024-01-25T10:12:34;2.30;;;1.20;;
57023;SDS011;42916;54.346;18.562;2024-01-25T10:15:02;7.40;;;2.20;;
57023;SDS011;42916;54.346;18.562;2024-01-25T10:17:30;3.80;;;1.70;;
57023;SDS011;42916;54.346;18.562;2024-01-25T10:19:57;5.00;;;1.00;;
57023;SDS011;42916;54.346;18.562;2024-01-25T10:22:25;2.80;;;1.10;;
57023;SDS011;42916;54.346;18.562;2024-01-25T10:24:54;5.10;;;1.30;;
57023;SDS011;42916;54.346;18.562;2024-01-25T10:27:21;3.80;;;1.20;;
57023;SDS011;42916;54.346;18.562;2024-01-25T10:29:49;11.20;;;1.50;;
57023;SDS011;42916;54.346;18.562;2024-01-25T10:32:17;5.30;;;1.90;;
57023;SDS011;42916;54.346;18.562;2024-01-25T10:34:45;8.80;;;1.20;;
57023;SDS011;42916;54.346;18.562;2024-01-25T10:37:14;9.50;;;1.70;;
57023;SDS011;42916;54.346;18.562;2024-01-25T10:39:42;1.00;;;0.90;;
57023;SDS011;42916;54.346;18.562;2024-01-25T10:42:10;2.00;;;1.10;;
57023;SDS011;42916;54.346;18.562;2024-01-25T10:44:37;2.30;;;1.10;;
57023;SDS011;42916;54.346;18.562;2024-01-25T10:47:05;3.00;;;1.10;;
57023;SDS011;42916;54.346;18.562;2024-01-25T10:49:33;5.20;;;1.80;;
57023;SDS011;42916;54.346;18.562;2024-01-25T10:52:04;3.10;;;1.80;;
57023;SDS011;42916;54.346;18.562;2024-01-25T10:57:00;4.70;;;1.40;;
57023;SDS011;42916;54.346;18.562;2024-01-25T10:59:27;5.40;;;2.40;;
57023;SDS011;42916;54.346;18.562;2024-01-25T11:01:54;2.60;;;1.00;;
57023;SDS011;42916;54.346;18.562;2024-01-25T11:04:21;3.10;;;1.10;;
57023;SDS011;42916;54.346;18.562;2024-01-25T11:06:52;4.60;;;1.40;;
57023;SDS011;42916;54.346;18.562;2024-01-25T11:09:20;4.00;;;2.70;;
57023;SDS011;42916;54.346;18.562;2024-01-25T11:11:48;2.10;;;1.20;;
57023;SDS011;42916;54.346;18.562;2024-01-25T11:14:19;3.80;;;2.20;;
57023;SDS011;42916;54.346;18.562;2024-01-25T11:16:46;2.10;;;1.30;;
57023;SDS011;42916;54.346;18.562;2024-01-25T11:19:17;5.60;;;1.60;;
57023;SDS011;42916;54.346;18.562;2024-01-25T11:21:49;4.50;;;2.20;;
57023;SDS011;42916;54.346;18.562;2024-01-25T11:26:49;3.70;;;1.50;;
57023;SDS011;42916;54.346;18.562;2024-01-25T11:29:17;3.00;;;1.80;;
57023;SDS011;42916;54.346;18.562;2024-01-25T11:31:47;5.10;;;2.40;;
57023;SDS011;42916;54.346;18.562;2024-01-25T11:34:18;5.60;;;2.40;;
57023;SDS011;42916;54.346;18.562;2024-01-25T11:36:45;4.20;;;1.30;;
57023;SDS011;42916;54.346;18.562;2024-01-25T11:39:13;2.70;;;1.90;;
57023;SDS011;42916;54.346;18.562;2024-01-25T11:41:42;3.10;;;2.00;;
57023;SDS011;42916;54.346;18.562;2024-01-25T11:44:11;2.90;;;1.50;;
57023;SDS011;42916;54.346;18.562;2024-01-25T11:46:38;3.90;;;1.20;;
57023;SDS011;42916;54.346;18.562;2024-01-25T11:49:06;2.20;;;1.60;;
57023;SDS011;42916;54.346;18.562;2024-01-25T11:51:36;1.90;;;1.50;;
57023;SDS011;42916;54.346;18.562;2024-01-25T11:54:02;6.50;;;3.30;;
57023;SDS011;42916;54.346;18.562;2024-01-25T11:56:34;3.30;;;2.10;;
57023;SDS011;42916;54.346;18.562;2024-01-25T11:59:06;3.70;;;2.40;;
57023;SDS011;42916;54.346;18.562;2024-01-25T12:01:33;3.60;;;2.10;;
57023;SDS011;42916;54.346;18.562;2024-01-25T12:04:00;3.70;;;1.50;;
57023;SDS011;42916;54.346;18.562;2024-01-25T12:06:28;2.40;;;1.40;;
57023;SDS011;42916;54.346;18.562;2024-01-25T12:09:05;4.30;;;1.50;;
57023;SDS011;42916;54.346;18.562;2024-01-25T12:11:35;2.30;;;1.40;;
57023;SDS011;42916;54.346;18.562;2024-01-25T12:14:02;3.10;;;1.90;;
57023;SDS011;42916;54.346;18.562;2024-01-25T12:16:29;2.60;;;1.10;;
57023;SDS011;42916;54.346;18.562;2024-01-25T12:18:56;3.70;;;2.00;;
57023;SDS011;42916;54.346;18.562;2024-01-25T12:21:24;4.00;;;1.70;;
57023;SDS011;42916;54.346;18.562;2024-01-25T12:23:51;3.40;;;1.80;;
57023;SDS011;42916;54.346;18.562;2024-01-25T12:26:19;6.00;;;1.90;;
57023;SDS011;42916;54.346;18.562;2024-01-25T12:28:45;2.40;;;1.30;;
57023;SDS011;42916;54.346;18.562;2024-01-25T12:31:17;2.80;;;1.20;;
57023;SDS011;42916;54.346;18.562;2024-01-25T12:33:45;1.20;;;1.10;;
57023;SDS011;42916;54.346;18.562;2024-01-25T12:36:12;3.20;;;1.40;;
57023;SDS011;42916;54.346;18.562;2024-01-25T12:38:38;4.10;;;2.80;;
57023;SDS011;42916;54.346;18.562;2024-01-25T12:41:05;2.50;;;1.30;;
57023;SDS011;42916;54.346;18.562;2024-01-25T12:43:32;3.80;;;1.00;;
57023;SDS011;42916;54.346;18.562;2024-01-25T12:45:59;2.90;;;1.50;;
57023;SDS011;42916;54.346;18.562;2024-01-25T12:48:26;3.30;;;1.10;;
57023;SDS011;42916;54.346;18.562;2024-01-25T12:50:53;1.80;;;1.00;;
57023;SDS011;42916;54.346;18.562;2024-01-25T12:53:20;3.90;;;2.50;;
57023;SDS011;42916;54.346;18.562;2024-01-25T12:55:47;3.80;;;1.20;;
57023;SDS011;42916;54.346;18.562;2024-01-25T12:58:16;2.60;;;1.60;;
57023;SDS011;42916;54.346;18.562;2024-01-25T13:00:43;3.70;;;1.50;;
57023;SDS011;42916;54.346;18.562;2024-01-25T13:03:11;3.50;;;2.20;;
57023;SDS011;42916;54.346;18.562;2024-01-25T13:05:39;7.80;;;2.70;;
57023;SDS011;42916;54.346;18.562;2024-01-25T13:08:06;5.20;;;2.30;;
57023;SDS011;42916;54.346;18.562;2024-01-25T13:10:33;6.00;;;3.00;;
57023;SDS011;42916;54.346;18.562;2024-01-25T13:13:00;8.80;;;3.70;;
57023;SDS011;42916;54.346;18.562;2024-01-25T13:15:27;5.50;;;2.40;;
57023;SDS011;42916;54.346;18.562;2024-01-25T13:17:54;2.20;;;1.30;;
57023;SDS011;42916;54.346;18.562;2024-01-25T13:20:21;1.70;;;1.10;;
57023;SDS011;42916;54.346;18.562;2024-01-25T13:22:48;1.50;;;0.80;;
57023;SDS011;42916;54.346;18.562;2024-01-25T13:25:17;1.20;;;1.10;;
57023;SDS011;42916;54.346;18.562;2024-01-25T13:27:44;26.40;;;4.20;;
57023;SDS011;42916;54.346;18.562;2024-01-25T13:30:11;23.90;;;2.70;;
57023;SDS011;42916;54.346;18.562;2024-01-25T13:32:40;3.30;;;2.30;;
57023;SDS011;42916;54.346;18.562;2024-01-25T13:35:07;2.30;;;1.50;;
57023;SDS011;42916;54.346;18.562;2024-01-25T13:37:34;3.80;;;1.50;;
57023;SDS011;42916;54.346;18.562;2024-01-25T13:40:01;2.30;;;1.80;;
57023;SDS011;42916;54.346;18.562;2024-01-25T13:42:30;2.40;;;1.10;;
57023;SDS011;42916;54.346;18.562;2024-01-25T13:44:57;1.50;;;1.00;;
57023;SDS011;42916;54.346;18.562;2024-01-25T13:47:25;1.60;;;0.90;;
57023;SDS011;42916;54.346;18.562;2024-01-25T13:49:52;2.40;;;1.00;;
57023;SDS011;42916;54.346;18.562;2024-01-25T13:52:20;3.00;;;1.20;;
57023;SDS011;42916;54.346;18.562;2024-01-25T13:54:47;2.70;;;1.00;;
57023;SDS011;42916;54.346;18.562;2024-01-25T13:57:17;1.50;;;1.00;;
57023;SDS011;42916;54.346;18.562;2024-01-25T13:59:47;1.30;;;0.80;;
57023;SDS011;42916;54.346;18.562;2024-01-25T14:02:14;1.60;;;0.80;;
57023;SDS011;42916;54.346;18.562;2024-01-25T14:04:41;0.70;;;0.70;;
57023;SDS011;42916;54.346;18.562;2024-01-25T14:07:08;1.30;;;0.80;;
57023;SDS011;42916;54.346;18.562;2024-01-25T14:09:35;1.50;;;0.80;;
57023;SDS011;42916;54.346;18.562;2024-01-25T14:14:31;1.80;;;0.90;;
57023;SDS011;42916;54.346;18.562;2024-01-25T14:16:58;0.90;;;0.60;;
57023;SDS011;42916;54.346;18.562;2024-01-25T14:19:25;3.20;;;0.70;;
57023;SDS011;42916;54.346;18.562;2024-01-25T14:21:52;1.90;;;0.70;;
57023;SDS011;42916;54.346;18.562;2024-01-25T14:24:19;1.50;;;0.70;;
57023;SDS011;42916;54.346;18.562;2024-01-25T14:26:46;2.70;;;1.00;;
57023;SDS011;42916;54.346;18.562;2024-01-25T14:29:13;2.90;;;0.80;;
57023;SDS011;42916;54.346;18.562;2024-01-25T14:31:40;1.90;;;0.80;;
57023;SDS011;42916;54.346;18.562;2024-01-25T14:34:07;1.10;;;0.70;;
57023;SDS011;42916;54.346;18.562;2024-01-25T14:36:37;0.80;;;0.70;;
57023;SDS011;42916;54.346;18.562;2024-01-25T14:39:04;2.10;;;0.90;;
57023;SDS011;42916;54.346;18.562;2024-01-25T14:41:34;2.60;;;1.20;;
57023;SDS011;42916;54.346;18.562;2024-01-25T14:44:01;3.80;;;1.70;;
57023;SDS011;42916;54.346;18.562;2024-01-25T14:46:28;2.40;;;1.40;;